sensor_id;sensor_type;location;lat;lon;timestamp;pressure;altitude;pressure_sealevel;temperature;humidity
74975;BME280;68459;50.836;19.138;2023-07-16T00:01:19;98315.72;;;22.18;56.19
74975;BME280;68459;50.836;19.138;2023-07-16T00:04:23;98310.97;;;22.10;56.33
74975;BME280;68459;50.836;19.138;2023-07-16T00:07:27;98314.31;;;22.07;56.55
74975;BME280;68459;50.836;19.138;2023-07-16T00:10:33;98309.34;;;22.09;56.31
74975;BME280;68459;50.836;19.138;2023-07-16T00:13:38;98313.72;;;22.10;56.29
74975;BME280;68459;50.836;19.138;2023-07-16T00:16:49;98307.72;;;22.08;56.34
74975;BME280;68459;50.836;19.138;2023-07-16T00:19:53;98303.13;;;22.03;56.34
74975;BME280;68459;50.836;19.138;2023-07-16T00:22:57;98302.38;;;21.97;56.57
74975;BME280;68459;50.836;19.138;2023-07-16T00:26:01;98300.34;;;21.89;56.57
74975;BME280;68459;50.836;19.138;2023-07-16T00:29:06;98293.34;;;21.83;56.83
74975;BME280;68459;50.836;19.138;2023-07-16T00:32:12;98294.78;;;21.81;57.16
74975;BME280;68459;50.836;19.138;2023-07-16T00:35:16;98292.94;;;21.76;56.93
74975;BME280;68459;50.836;19.138;2023-07-16T00:38:20;98287.53;;;21.71;57.08
74975;BME280;68459;50.836;19.138;2023-07-16T00:41:25;98299.16;;;21.68;57.14
74975;BME280;68459;50.836;19.138;2023-07-16T00:44:29;98284.69;;;21.62;57.47
74975;BME280;68459;50.836;19.138;2023-07-16T00:47:34;98282.03;;;21.57;57.38
74975;BME280;68459;50.836;19.138;2023-07-16T00:50:39;98286.31;;;21.50;57.70
74975;BME280;68459;50.836;19.138;2023-07-16T00:53:44;98279.81;;;21.46;57.72
74975;BME280;68459;50.836;19.138;2023-07-16T00:56:49;98285.28;;;21.46;57.74
74975;BME280;68459;50.836;19.138;2023-07-16T00:59:53;98288.25;;;21.49;57.70
74975;BME280;68459;50.836;19.138;2023-07-16T01:03:01;98286.41;;;21.45;57.71
74975;BME280;68459;50.836;19.138;2023-07-16T01:06:10;98281.53;;;21.42;58.09
74975;BME280;68459;50.836;19.138;2023-07-16T01:09:17;98287.03;;;21.42;57.90
74975;BME280;68459;50.836;19.138;2023-07-16T01:12:22;98285.09;;;21.42;57.65
74975;BME280;68459;50.836;19.138;2023-07-16T01:15:27;98277.19;;;21.41;57.83
74975;BME280;68459;50.836;19.138;2023-07-16T01:18:32;98275.63;;;21.34;57.98
74975;BME280;68459;50.836;19.138;2023-07-16T01:21:41;98276.03;;;21.28;58.00
74975;BME280;68459;50.836;19.138;2023-07-16T01:25:03;98269.31;;;21.20;58.99
74975;BME280;68459;50.836;19.138;2023-07-16T01:28:32;98263.38;;;21.13;58.72
74975;BME280;68459;50.836;19.138;2023-07-16T01:31:49;98263.75;;;21.07;58.67
74975;BME280;68459;50.836;19.138;2023-07-16T01:34:55;98261.66;;;21.04;58.45
74975;BME280;68459;50.836;19.138;2023-07-16T01:37:59;98269.53;;;21.05;58.67
74975;BME280;68459;50.836;19.138;2023-07-16T01:41:04;98266.91;;;21.00;58.63
74975;BME280;68459;50.836;19.138;2023-07-16T01:44:08;98271.88;;;20.98;58.67
74975;BME280;68459;50.836;19.138;2023-07-16T01:47:16;98268.91;;;20.94;58.93
74975;BME280;68459;50.836;19.138;2023-07-16T01:50:26;98269.72;;;20.95;59.05
74975;BME280;68459;50.836;19.138;2023-07-16T01:53:30;98279.88;;;20.94;58.98
74975;BME280;68459;50.836;19.138;2023-07-16T01:56:38;98268.09;;;20.94;58.88
74975;BME280;68459;50.836;19.138;2023-07-16T01:59:42;98267.59;;;20.92;58.96
74975;BME280;68459;50.836;19.138;2023-07-16T02:02:49;98260.78;;;20.89;59.32
74975;BME280;68459;50.836;19.138;2023-07-16T02:05:53;98257.59;;;20.82;59.38
74975;BME280;68459;50.836;19.138;2023-07-16T02:08:57;98266.22;;;20.76;59.54
74975;BME280;68459;50.836;19.138;2023-07-16T02:12:02;98265.19;;;20.72;59.70
74975;BME280;68459;50.836;19.138;2023-07-16T02:15:06;98269.63;;;20.68;59.51
74975;BME280;68459;50.836;19.138;2023-07-16T02:18:13;98265.78;;;20.69;59.87
74975;BME280;68459;50.836;19.138;2023-07-16T02:21:17;98259.19;;;20.70;59.55
74975;BME280;68459;50.836;19.138;2023-07-16T02:24:23;98262.75;;;20.70;59.90
74975;BME280;68459;50.836;19.138;2023-07-16T02:27:27;98262.53;;;20.67;60.49
74975;BME280;68459;50.836;19.138;2023-07-16T02:30:31;98251.38;;;20.63;60.00
74975;BME280;68459;50.836;19.138;2023-07-16T02:33:36;98254.41;;;20.61;60.32
74975;BME280;68459;50.836;19.138;2023-07-16T02:36:43;98247.88;;;20.57;60.08
74975;BME280;68459;50.836;19.138;2023-07-16T02:39:46;98252.84;;;20.55;60.22
74975;BME280;68459;50.836;19.138;2023-07-16T02:42:51;98253.13;;;20.54;60.44
74975;BME280;68459;50.836;19.138;2023-07-16T02:45:54;98258.63;;;20.54;60.37
74975;BME280;68459;50.836;19.138;2023-07-16T02:49:01;98257.81;;;20.53;60.74
74975;BME280;68459;50.836;19.138;2023-07-16T02:52:06;98266.03;;;20.53;60.56
74975;BME280;68459;50.836;19.138;2023-07-16T02:55:11;98269.88;;;20.52;60.85
74975;BME280;68459;50.836;19.138;2023-07-16T02:58:14;98268.75;;;20.53;60.38
74975;BME280;68459;50.836;19.138;2023-07-16T03:01:19;98257.81;;;20.53;60.58
74975;BME280;68459;50.836;19.138;2023-07-16T03:04:24;98272.63;;;20.52;60.99
74975;BME280;68459;50.836;19.138;2023-07-16T03:07:28;98268.25;;;20.51;60.78
74975;BME280;68459;50.836;19.138;2023-07-16T03:10:32;98268.75;;;20.53;60.81
74975;BME280;68459;50.836;19.138;2023-07-16T03:13:36;98266.03;;;20.53;61.22
74975;BME280;68459;50.836;19.138;2023-07-16T03:16:41;98264.31;;;20.57;61.06
74975;BME280;68459;50.836;19.138;2023-07-16T03:19:48;98263.50;;;20.57;60.92
74975;BME280;68459;50.836;19.138;2023-07-16T03:22:52;98278.84;;;20.58;60.93
74975;BME280;68459;50.836;19.138;2023-07-16T03:25:56;98278.53;;;20.59;60.84
74975;BME280;68459;50.836;19.138;2023-07-16T03:29:01;98278.97;;;20.67;60.97
74975;BME280;68459;50.836;19.138;2023-07-16T03:32:07;98273.72;;;20.70;60.72
74975;BME280;68459;50.836;19.138;2023-07-16T03:35:12;98269.84;;;20.71;60.84
74975;BME280;68459;50.836;19.138;2023-07-16T03:38:16;98280.81;;;20.71;60.70
74975;BME280;68459;50.836;19.138;2023-07-16T03:41:20;98271.38;;;20.63;60.79
74975;BME280;68459;50.836;19.138;2023-07-16T03:44:25;98280.19;;;20.60;61.43
74975;BME280;68459;50.836;19.138;2023-07-16T03:47:28;98284.03;;;20.59;61.24
74975;BME280;68459;50.836;19.138;2023-07-16T03:50:35;98292.25;;;20.59;61.36
74975;BME280;68459;50.836;19.138;2023-07-16T03:53:39;98301.81;;;20.62;61.39
74975;BME280;68459;50.836;19.138;2023-07-16T03:56:43;98286.59;;;20.70;61.41
74975;BME280;68459;50.836;19.138;2023-07-16T03:59:46;98284.09;;;20.73;61.21
74975;BME280;68459;50.836;19.138;2023-07-16T04:02:50;98290.09;;;20.75;61.28
74975;BME280;68459;50.836;19.138;2023-07-16T04:06:02;98291.38;;;20.78;61.44
74975;BME280;68459;50.836;19.138;2023-07-16T04:09:07;98300.44;;;20.78;61.22
74975;BME280;68459;50.836;19.138;2023-07-16T04:12:10;98303.41;;;20.82;61.08
74975;BME280;68459;50.836;19.138;2023-07-16T04:15:15;98302.00;;;20.84;61.42
74975;BME280;68459;50.836;19.138;2023-07-16T04:18:18;98303.03;;;20.88;61.30
74975;BME280;68459;50.836;19.138;2023-07-16T04:21:25;98303.22;;;20.92;61.28
74975;BME280;68459;50.836;19.138;2023-07-16T04:24:29;98307.53;;;20.98;61.25
74975;BME280;68459;50.836;19.138;2023-07-16T04:27:33;98298.41;;;21.03;61.39
74975;BME280;68459;50.836;19.138;2023-07-16T04:30:37;98310.09;;;21.08;61.13
74975;BME280;68459;50.836;19.138;2023-07-16T04:33:42;98321.22;;;21.17;61.12
74975;BME280;68459;50.836;19.138;2023-07-16T04:36:47;98318.31;;;21.27;60.99
74975;BME280;68459;50.836;19.138;2023-07-16T04:39:51;98324.41;;;21.38;60.66
74975;BME280;68459;50.836;19.138;2023-07-16T04:42:55;98332.47;;;21.48;60.74
74975;BME280;68459;50.836;19.138;2023-07-16T04:45:59;98325.66;;;21.59;60.27
74975;BME280;68459;50.836;19.138;2023-07-16T04:49:04;98335.34;;;21.70;60.38
74975;BME280;68459;50.836;19.138;2023-07-16T04:52:10;98334.34;;;21.80;60.23
74975;BME280;68459;50.836;19.138;2023-07-16T04:55:14;98346.75;;;21.91;59.97
74975;BME280;68459;50.836;19.138;2023-07-16T04:58:18;98344.03;;;22.04;59.64
74975;BME280;68459;50.836;19.138;2023-07-16T05:01:21;98344.31;;;22.17;59.64
74975;BME280;68459;50.836;19.138;2023-07-16T05:04:26;98340.75;;;22.30;59.62
74975;BME280;68459;50.836;19.138;2023-07-16T05:07:31;98343.47;;;22.44;59.00
74975;BME280;68459;50.836;19.138;2023-07-16T05:10:35;98356.66;;;22.55;58.98
74975;BME280;68459;50.836;19.138;2023-07-16T05:13:39;98363.56;;;22.66;59.00
74975;BME280;68459;50.836;19.138;2023-07-16T05:16:43;98355.91;;;22.77;58.65
74975;BME280;68459;50.836;19.138;2023-07-16T05:19:47;98361.38;;;22.91;58.41
74975;BME280;68459;50.836;19.138;2023-07-16T05:22:52;98362.47;;;23.03;58.35
74975;BME280;68459;50.836;19.138;2023-07-16T05:25:56;98358.03;;;23.16;58.33
74975;BME280;68459;50.836;19.138;2023-07-16T05:29:00;98357.78;;;23.26;58.31
74975;BME280;68459;50.836;19.138;2023-07-16T05:32:05;98360.25;;;23.36;57.82
74975;BME280;68459;50.836;19.138;2023-07-16T05:35:10;98363.25;;;23.49;57.79
74975;BME280;68459;50.836;19.138;2023-07-16T05:38:15;98372.25;;;23.63;57.51
74975;BME280;68459;50.836;19.138;2023-07-16T05:41:19;98378.81;;;23.75;57.16
74975;BME280;68459;50.836;19.138;2023-07-16T05:44:25;98383.22;;;23.85;57.03
74975;BME280;68459;50.836;19.138;2023-07-16T05:47:29;98403.53;;;23.98;56.95
74975;BME280;68459;50.836;19.138;2023-07-16T05:50:33;98417.56;;;24.10;56.31
74975;BME280;68459;50.836;19.138;2023-07-16T05:53:39;98440.00;;;24.26;56.13
74975;BME280;68459;50.836;19.138;2023-07-16T05:56:43;98450.47;;;24.46;55.48
74975;BME280;68459;50.836;19.138;2023-07-16T05:59:47;98463.84;;;24.70;54.60
74975;BME280;68459;50.836;19.138;2023-07-16T06:02:50;98471.75;;;25.02;54.26
74975;BME280;68459;50.836;19.138;2023-07-16T06:05:55;98467.84;;;25.12;53.78
74975;BME280;68459;50.836;19.138;2023-07-16T06:09:00;98463.78;;;25.09;53.92
74975;BME280;68459;50.836;19.138;2023-07-16T06:12:05;98461.34;;;25.08;53.33
74975;BME280;68459;50.836;19.138;2023-07-16T06:15:09;98468.81;;;25.07;53.49
74975;BME280;68459;50.836;19.138;2023-07-16T06:18:14;98477.25;;;25.11;53.40
74975;BME280;68459;50.836;19.138;2023-07-16T06:21:21;98468.84;;;25.16;54.02
74975;BME280;68459;50.836;19.138;2023-07-16T06:24:26;98478.25;;;25.24;53.81
74975;BME280;68459;50.836;19.138;2023-07-16T06:27:33;98473.84;;;25.31;53.43
74975;BME280;68459;50.836;19.138;2023-07-16T06:30:37;98484.28;;;25.43;53.64
74975;BME280;68459;50.836;19.138;2023-07-16T06:33:41;98482.63;;;25.59;53.51
74975;BME280;68459;50.836;19.138;2023-07-16T06:36:45;98485.72;;;25.75;52.65
74975;BME280;68459;50.836;19.138;2023-07-16T06:39:50;98476.94;;;25.81;53.26
74975;BME280;68459;50.836;19.138;2023-07-16T06:42:54;98477.41;;;25.92;52.92
74975;BME280;68459;50.836;19.138;2023-07-16T06:45:58;98486.00;;;25.99;52.54
74975;BME280;68459;50.836;19.138;2023-07-16T06:49:02;98490.72;;;26.07;52.88
74975;BME280;68459;50.836;19.138;2023-07-16T06:52:07;98500.44;;;26.13;52.75
74975;BME280;68459;50.836;19.138;2023-07-16T06:55:13;98487.41;;;26.22;52.60
74975;BME280;68459;50.836;19.138;2023-07-16T06:58:17;98486.94;;;26.29;52.50
74975;BME280;68459;50.836;19.138;2023-07-16T07:01:21;98481.72;;;26.36;52.31
74975;BME280;68459;50.836;19.138;2023-07-16T07:04:24;98484.44;;;26.45;52.50
74975;BME280;68459;50.836;19.138;2023-07-16T07:07:29;98487.97;;;26.54;52.29
74975;BME280;68459;50.836;19.138;2023-07-16T07:10:34;98500.97;;;26.62;52.24
74975;BME280;68459;50.836;19.138;2023-07-16T07:13:40;98505.97;;;26.69;52.00
74975;BME280;68459;50.836;19.138;2023-07-16T07:16:45;98509.03;;;26.76;52.26
74975;BME280;68459;50.836;19.138;2023-07-16T07:19:49;98509.47;;;26.78;52.31
74975;BME280;68459;50.836;19.138;2023-07-16T07:22:52;98510.44;;;26.82;52.27
74975;BME280;68459;50.836;19.138;2023-07-16T07:25:58;98517.56;;;26.91;52.41
74975;BME280;68459;50.836;19.138;2023-07-16T07:29:02;98525.03;;;27.00;52.33
74975;BME280;68459;50.836;19.138;2023-07-16T07:32:07;98536.59;;;27.02;52.30
74975;BME280;68459;50.836;19.138;2023-07-16T07:35:11;98527.16;;;27.03;52.48
74975;BME280;68459;50.836;19.138;2023-07-16T07:38:16;98553.16;;;27.10;52.52
74975;BME280;68459;50.836;19.138;2023-07-16T07:41:22;98525.41;;;27.19;52.50
74975;BME280;68459;50.836;19.138;2023-07-16T07:44:26;98521.56;;;27.32;52.25
74975;BME280;68459;50.836;19.138;2023-07-16T07:47:31;98520.00;;;27.43;52.02
74975;BME280;68459;50.836;19.138;2023-07-16T07:50:35;98525.16;;;27.53;51.93
74975;BME280;68459;50.836;19.138;2023-07-16T07:53:38;98523.06;;;27.50;51.61
74975;BME280;68459;50.836;19.138;2023-07-16T07:56:45;98512.47;;;27.52;51.59
74975;BME280;68459;50.836;19.138;2023-07-16T07:59:49;98529.75;;;27.49;51.69
74975;BME280;68459;50.836;19.138;2023-07-16T08:02:59;98528.28;;;27.52;51.60
74975;BME280;68459;50.836;19.138;2023-07-16T08:06:03;98528.41;;;27.55;51.48
74975;BME280;68459;50.836;19.138;2023-07-16T08:09:07;98528.22;;;27.60;51.38
74975;BME280;68459;50.836;19.138;2023-07-16T08:12:12;98531.28;;;27.67;51.39
74975;BME280;68459;50.836;19.138;2023-07-16T08:15:17;98530.94;;;27.69;51.14
74975;BME280;68459;50.836;19.138;2023-07-16T08:18:21;98538.22;;;27.74;50.90
74975;BME280;68459;50.836;19.138;2023-07-16T08:21:25;98531.53;;;27.75;50.59
74975;BME280;68459;50.836;19.138;2023-07-16T08:24:29;98540.31;;;27.77;50.32
74975;BME280;68459;50.836;19.138;2023-07-16T08:27:35;98525.03;;;27.71;49.79
74975;BME280;68459;50.836;19.138;2023-07-16T08:30:38;98543.97;;;27.69;49.77
74975;BME280;68459;50.836;19.138;2023-07-16T08:33:43;98524.91;;;27.67;49.76
74975;BME280;68459;50.836;19.138;2023-07-16T08:36:46;98545.59;;;27.70;49.72
74975;BME280;68459;50.836;19.138;2023-07-16T08:39:51;98536.59;;;27.73;49.72
74975;BME280;68459;50.836;19.138;2023-07-16T08:42:57;98544.91;;;27.73;49.64
74975;BME280;68459;50.836;19.138;2023-07-16T08:46:02;98531.03;;;27.73;49.57
74975;BME280;68459;50.836;19.138;2023-07-16T08:49:07;98527.59;;;27.76;49.74
74975;BME280;68459;50.836;19.138;2023-07-16T08:52:12;98529.38;;;27.80;49.56
74975;BME280;68459;50.836;19.138;2023-07-16T08:55:17;98534.47;;;27.90;49.47
74975;BME280;68459;50.836;19.138;2023-07-16T08:58:23;98534.63;;;27.94;48.67
74975;BME280;68459;50.836;19.138;2023-07-16T09:01:27;98530.94;;;28.02;48.64
74975;BME280;68459;50.836;19.138;2023-07-16T09:04:32;98526.22;;;28.02;48.09
74975;BME280;68459;50.836;19.138;2023-07-16T09:07:36;98533.72;;;28.02;48.20
74975;BME280;68459;50.836;19.138;2023-07-16T09:10:41;98535.00;;;28.05;47.73
74975;BME280;68459;50.836;19.138;2023-07-16T09:13:46;98541.84;;;28.07;46.60
74975;BME280;68459;50.836;19.138;2023-07-16T09:16:51;98540.22;;;28.06;47.02
74975;BME280;68459;50.836;19.138;2023-07-16T09:19:55;98533.50;;;28.07;46.57
74975;BME280;68459;50.836;19.138;2023-07-16T09:22:59;98536.53;;;28.14;46.63
74975;BME280;68459;50.836;19.138;2023-07-16T09:26:03;98526.41;;;28.18;46.31
74975;BME280;68459;50.836;19.138;2023-07-16T09:29:09;98530.81;;;28.19;45.76
74975;BME280;68459;50.836;19.138;2023-07-16T09:32:12;98527.13;;;28.27;45.88
74975;BME280;68459;50.836;19.138;2023-07-16T09:35:17;98536.13;;;28.36;45.57
74975;BME280;68459;50.836;19.138;2023-07-16T09:38:21;98530.72;;;28.40;45.67
74975;BME280;68459;50.836;19.138;2023-07-16T09:41:28;98526.13;;;28.44;45.53
74975;BME280;68459;50.836;19.138;2023-07-16T09:44:33;98522.06;;;28.54;45.38
74975;BME280;68459;50.836;19.138;2023-07-16T09:47:39;98530.88;;;28.68;45.04
74975;BME280;68459;50.836;19.138;2023-07-16T09:50:49;98531.25;;;28.79;45.01
74975;BME280;68459;50.836;19.138;2023-07-16T09:53:55;98546.66;;;28.88;45.09
74975;BME280;68459;50.836;19.138;2023-07-16T09:57:02;98537.28;;;28.93;44.43
74975;BME280;68459;50.836;19.138;2023-07-16T10:00:12;98537.63;;;29.03;44.51
74975;BME280;68459;50.836;19.138;2023-07-16T10:03:17;98548.03;;;29.19;44.06
74975;BME280;68459;50.836;19.138;2023-07-16T10:06:21;98547.44;;;29.37;44.40
74975;BME280;68459;50.836;19.138;2023-07-16T10:09:35;98548.13;;;29.47;42.37
74975;BME280;68459;50.836;19.138;2023-07-16T10:12:41;98557.25;;;29.59;43.12
74975;BME280;68459;50.836;19.138;2023-07-16T10:15:53;98547.25;;;29.70;42.23
74975;BME280;68459;50.836;19.138;2023-07-16T10:18:59;98548.75;;;29.80;41.63
74975;BME280;68459;50.836;19.138;2023-07-16T10:22:03;98552.41;;;29.84;41.51
74975;BME280;68459;50.836;19.138;2023-07-16T10:25:09;98547.22;;;29.83;41.54
74975;BME280;68459;50.836;19.138;2023-07-16T10:28:13;98546.31;;;29.78;42.14
74975;BME280;68459;50.836;19.138;2023-07-16T10:31:21;98552.78;;;29.83;42.01
74975;BME280;68459;50.836;19.138;2023-07-16T10:34:25;98540.75;;;29.78;42.31
74975;BME280;68459;50.836;19.138;2023-07-16T10:37:29;98541.56;;;29.79;41.99
74975;BME280;68459;50.836;19.138;2023-07-16T10:40:39;98552.53;;;29.88;41.51
74975;BME280;68459;50.836;19.138;2023-07-16T10:43:45;98556.44;;;29.99;40.86
74975;BME280;68459;50.836;19.138;2023-07-16T10:46:50;98566.47;;;30.16;40.62
74975;BME280;68459;50.836;19.138;2023-07-16T10:49:58;98557.72;;;30.45;40.13
74975;BME280;68459;50.836;19.138;2023-07-16T10:53:02;98561.66;;;30.72;40.03
74975;BME280;68459;50.836;19.138;2023-07-16T10:56:06;98557.50;;;30.97;39.14
74975;BME280;68459;50.836;19.138;2023-07-16T10:59:10;98557.97;;;31.15;39.08
74975;BME280;68459;50.836;19.138;2023-07-16T11:02:16;98562.53;;;31.23;38.20
74975;BME280;68459;50.836;19.138;2023-07-16T11:05:20;98553.97;;;31.32;38.60
74975;BME280;68459;50.836;19.138;2023-07-16T11:08:25;98548.47;;;31.35;38.90
74975;BME280;68459;50.836;19.138;2023-07-16T11:11:29;98546.09;;;31.53;38.57
74975;BME280;68459;50.836;19.138;2023-07-16T11:14:34;98548.19;;;31.75;38.77
74975;BME280;68459;50.836;19.138;2023-07-16T11:17:39;98563.63;;;32.08;38.09
74975;BME280;68459;50.836;19.138;2023-07-16T11:20:44;98553.94;;;32.21;37.53
74975;BME280;68459;50.836;19.138;2023-07-16T11:23:48;98558.28;;;32.18;37.37
74975;BME280;68459;50.836;19.138;2023-07-16T11:26:52;98556.19;;;32.15;37.46
74975;BME280;68459;50.836;19.138;2023-07-16T11:30:00;98560.06;;;32.11;37.05
74975;BME280;68459;50.836;19.138;2023-07-16T11:33:09;98551.84;;;31.99;37.24
74975;BME280;68459;50.836;19.138;2023-07-16T11:36:13;98557.91;;;32.20;36.97
74975;BME280;68459;50.836;19.138;2023-07-16T11:39:18;98544.91;;;32.50;36.58
74975;BME280;68459;50.836;19.138;2023-07-16T11:42:28;98544.66;;;32.59;36.74
74975;BME280;68459;50.836;19.138;2023-07-16T11:45:34;98545.22;;;32.45;37.03
74975;BME280;68459;50.836;19.138;2023-07-16T11:48:39;98546.56;;;32.32;37.52
74975;BME280;68459;50.836;19.138;2023-07-16T11:51:43;98542.16;;;32.31;37.37
74975;BME280;68459;50.836;19.138;2023-07-16T11:54:47;98529.28;;;32.46;37.44
74975;BME280;68459;50.836;19.138;2023-07-16T11:57:52;98523.44;;;32.54;37.44
74975;BME280;68459;50.836;19.138;2023-07-16T12:00:58;98515.34;;;32.27;37.57
74975;BME280;68459;50.836;19.138;2023-07-16T12:04:04;98516.75;;;31.98;38.08
74975;BME280;68459;50.836;19.138;2023-07-16T12:07:08;98503.03;;;31.89;38.17
74975;BME280;68459;50.836;19.138;2023-07-16T12:10:12;98495.41;;;31.86;38.13
74975;BME280;68459;50.836;19.138;2023-07-16T12:13:15;98503.84;;;32.09;37.95
74975;BME280;68459;50.836;19.138;2023-07-16T12:16:20;98498.97;;;32.25;37.83
74975;BME280;68459;50.836;19.138;2023-07-16T12:19:25;98502.53;;;32.22;37.57
74975;BME280;68459;50.836;19.138;2023-07-16T12:22:29;98511.34;;;32.47;37.75
74975;BME280;68459;50.836;19.138;2023-07-16T12:25:33;98505.78;;;32.96;36.56
74975;BME280;68459;50.836;19.138;2023-07-16T12:28:38;98505.88;;;33.56;35.55
74975;BME280;68459;50.836;19.138;2023-07-16T12:31:41;98511.09;;;33.87;35.41
74975;BME280;68459;50.836;19.138;2023-07-16T12:34:47;98503.50;;;34.21;34.39
74975;BME280;68459;50.836;19.138;2023-07-16T12:37:51;98500.06;;;34.35;34.36
74975;BME280;68459;50.836;19.138;2023-07-16T12:40:55;98499.41;;;34.49;34.24
74975;BME280;68459;50.836;19.138;2023-07-16T12:43:58;98500.06;;;34.79;32.98
74975;BME280;68459;50.836;19.138;2023-07-16T12:47:03;98497.91;;;35.10;32.73
74975;BME280;68459;50.836;19.138;2023-07-16T12:50:12;98493.88;;;35.07;32.59
74975;BME280;68459;50.836;19.138;2023-07-16T12:53:16;98482.75;;;35.21;32.56
74975;BME280;68459;50.836;19.138;2023-07-16T12:56:20;98491.81;;;35.69;32.36
74975;BME280;68459;50.836;19.138;2023-07-16T12:59:24;98494.41;;;36.17;32.09
74975;BME280;68459;50.836;19.138;2023-07-16T13:02:27;98497.28;;;36.49;31.34
74975;BME280;68459;50.836;19.138;2023-07-16T13:05:33;98500.94;;;37.03;30.48
74975;BME280;68459;50.836;19.138;2023-07-16T13:08:37;98499.63;;;37.61;29.66
74975;BME280;68459;50.836;19.138;2023-07-16T13:11:41;98499.88;;;38.68;28.20
74975;BME280;68459;50.836;19.138;2023-07-16T13:14:45;98508.00;;;40.97;25.81
74975;BME280;68459;50.836;19.138;2023-07-16T13:17:50;98519.41;;;43.20;23.55
74975;BME280;68459;50.836;19.138;2023-07-16T13:20:55;98520.00;;;45.16;21.54
74975;BME280;68459;50.836;19.138;2023-07-16T13:23:59;98522.88;;;46.16;20.69
74975;BME280;68459;50.836;19.138;2023-07-16T13:27:03;98520.97;;;45.34;20.90
74975;BME280;68459;50.836;19.138;2023-07-16T13:30:08;98510.25;;;42.63;23.39
74975;BME280;68459;50.836;19.138;2023-07-16T13:33:11;98504.19;;;40.30;25.55
74975;BME280;68459;50.836;19.138;2023-07-16T13:36:17;98506.28;;;39.20;26.64
74975;BME280;68459;50.836;19.138;2023-07-16T13:39:21;98505.03;;;40.27;25.40
74975;BME280;68459;50.836;19.138;2023-07-16T13:42:25;98508.00;;;41.83;24.33
74975;BME280;68459;50.836;19.138;2023-07-16T13:45:28;98520.00;;;44.14;22.63
74975;BME280;68459;50.836;19.138;2023-07-16T13:48:32;98514.69;;;44.92;21.38
74975;BME280;68459;50.836;19.138;2023-07-16T13:51:57;98509.53;;;44.11;21.47
74975;BME280;68459;50.836;19.138;2023-07-16T13:55:03;98509.47;;;44.53;21.20
74975;BME280;68459;50.836;19.138;2023-07-16T13:58:07;98508.91;;;43.33;22.68
74975;BME280;68459;50.836;19.138;2023-07-16T14:01:11;98493.63;;;41.74;23.92
74975;BME280;68459;50.836;19.138;2023-07-16T14:04:15;98493.72;;;40.27;25.67
74975;BME280;68459;50.836;19.138;2023-07-16T14:07:20;98498.47;;;38.90;26.93
74975;BME280;68459;50.836;19.138;2023-07-16T14:10:24;98491.56;;;37.73;28.46
74975;BME280;68459;50.836;19.138;2023-07-16T14:13:28;98492.13;;;37.01;29.29
74975;BME280;68459;50.836;19.138;2023-07-16T14:16:32;98491.28;;;36.54;29.74
74975;BME280;68459;50.836;19.138;2023-07-16T14:19:36;98490.84;;;36.24;30.32
74975;BME280;68459;50.836;19.138;2023-07-16T14:22:41;98497.59;;;36.01;29.91
74975;BME280;68459;50.836;19.138;2023-07-16T14:25:45;98491.78;;;35.55;30.81
74975;BME280;68459;50.836;19.138;2023-07-16T14:28:49;98491.25;;;35.28;30.50
74975;BME280;68459;50.836;19.138;2023-07-16T14:31:53;98492.47;;;35.34;30.43
74975;BME280;68459;50.836;19.138;2023-07-16T14:34:57;98490.16;;;35.58;30.70
74975;BME280;68459;50.836;19.138;2023-07-16T14:38:02;98481.47;;;35.84;30.00
74975;BME280;68459;50.836;19.138;2023-07-16T14:41:06;98483.59;;;36.23;29.67
74975;BME280;68459;50.836;19.138;2023-07-16T14:44:10;98481.13;;;38.43;28.44
74975;BME280;68459;50.836;19.138;2023-07-16T14:47:14;98495.88;;;42.38;24.38
74975;BME280;68459;50.836;19.138;2023-07-16T14:50:19;98492.94;;;44.98;22.53
74975;BME280;68459;50.836;19.138;2023-07-16T14:53:24;98505.94;;;44.87;21.34
74975;BME280;68459;50.836;19.138;2023-07-16T14:56:28;98499.53;;;42.71;23.28
74975;BME280;68459;50.836;19.138;2023-07-16T14:59:32;98495.00;;;40.76;25.08
74975;BME280;68459;50.836;19.138;2023-07-16T15:02:38;98489.28;;;39.27;26.89
74975;BME280;68459;50.836;19.138;2023-07-16T15:05:41;98486.78;;;38.36;27.90
74975;BME280;68459;50.836;19.138;2023-07-16T15:08:47;98479.50;;;37.69;28.13
74975;BME280;68459;50.836;19.138;2023-07-16T15:11:52;98471.56;;;37.32;28.43
74975;BME280;68459;50.836;19.138;2023-07-16T15:14:57;98467.94;;;37.39;28.41
74975;BME280;68459;50.836;19.138;2023-07-16T15:18:00;98466.31;;;37.41;28.66
74975;BME280;68459;50.836;19.138;2023-07-16T15:21:05;98473.50;;;37.64;28.41
74975;BME280;68459;50.836;19.138;2023-07-16T15:24:10;98463.34;;;37.84;27.95
74975;BME280;68459;50.836;19.138;2023-07-16T15:27:15;98472.44;;;38.17;27.69
74975;BME280;68459;50.836;19.138;2023-07-16T15:30:19;98467.94;;;38.26;27.33
74975;BME280;68459;50.836;19.138;2023-07-16T15:33:23;98456.53;;;37.78;28.21
74975;BME280;68459;50.836;19.138;2023-07-16T15:36:27;98459.00;;;37.62;28.45
74975;BME280;68459;50.836;19.138;2023-07-16T15:39:32;98454.41;;;37.96;27.88
74975;BME280;68459;50.836;19.138;2023-07-16T15:42:36;98452.97;;;37.60;27.98
74975;BME280;68459;50.836;19.138;2023-07-16T15:45:40;98463.66;;;39.11;26.80
74975;BME280;68459;50.836;19.138;2023-07-16T15:48:44;98469.91;;;41.44;24.56
74975;BME280;68459;50.836;19.138;2023-07-16T15:51:49;98469.50;;;43.35;22.54
74975;BME280;68459;50.836;19.138;2023-07-16T15:54:54;98473.59;;;44.68;20.37
74975;BME280;68459;50.836;19.138;2023-07-16T15:57:58;98478.25;;;44.62;20.69
74975;BME280;68459;50.836;19.138;2023-07-16T16:01:02;98472.03;;;42.68;22.63
74975;BME280;68459;50.836;19.138;2023-07-16T16:04:06;98483.41;;;40.43;24.63
74975;BME280;68459;50.836;19.138;2023-07-16T16:07:10;98494.56;;;38.77;26.46